createdAt,value
2022-08-17T00:02:26.806Z,3.70
2022-08-17T00:05:31.286Z,3.90
2022-08-17T00:08:36.207Z,3.97
2022-08-17T00:11:41.086Z,4.03
2022-08-17T00:14:42.496Z,4.20
2022-08-17T00:17:47.678Z,3.60
2022-08-17T00:20:49.110Z,3.60
2022-08-17T00:23:50.636Z,3.70
2022-08-17T00:26:52.306Z,3.43
2022-08-17T00:29:53.740Z,3.97
2022-08-17T00:33:11.611Z,3.63
2022-08-17T00:36:17.974Z,4.00
2022-08-17T00:39:19.660Z,3.97
2022-08-17T00:42:21.079Z,3.70
2022-08-17T00:45:23.247Z,4.10
2022-08-17T00:48:30.282Z,4.10
2022-08-17T00:51:46.457Z,3.93
2022-08-17T00:54:52.175Z,3.90
2022-08-17T00:57:58.579Z,3.67
2022-08-17T01:01:03.991Z,3.90
2022-08-17T01:04:05.966Z,3.70
2022-08-17T01:07:07.666Z,4.17
2022-08-17T01:10:57.123Z,3.80
2022-08-17T01:13:41.203Z,4.40
2022-08-17T01:16:42.860Z,4.10
2022-08-17T01:19:45.184Z,3.87
2022-08-17T01:22:46.711Z,3.93
2022-08-17T01:25:51.048Z,4.27
2022-08-17T01:28:55.789Z,4.30
2022-08-17T01:32:00.996Z,4.60
2022-08-17T01:35:04.966Z,4.90
2022-08-17T01:38:07.066Z,5.47
2022-08-17T01:41:13.850Z,5.50
2022-08-17T01:44:16.731Z,5.93
2022-08-17T01:47:18.178Z,5.37
2022-08-17T01:50:24.658Z,5.23
2022-08-17T01:53:36.586Z,5.33
2022-08-17T01:56:41.956Z,5.70
2022-08-17T01:59:44.185Z,5.57
2022-08-17T02:02:45.764Z,5.90
2022-08-17T02:05:50.729Z,5.37
2022-08-17T02:09:02.599Z,6.00
2022-08-17T02:12:37.100Z,5.20
2022-08-17T02:15:26.945Z,5.20
2022-08-17T02:18:28.648Z,4.90
2022-08-17T02:21:30.043Z,5.70
2022-08-17T02:24:59.509Z,4.90
2022-08-17T02:27:55.893Z,5.03
2022-08-17T02:31:01.256Z,4.70
2022-08-17T02:34:05.422Z,4.50
2022-08-17T02:37:07.035Z,4.63
2022-08-17T02:40:09.329Z,4.77
2022-08-17T02:43:10.757Z,5.17
2022-08-17T02:46:12.770Z,4.87
2022-08-17T02:49:15.646Z,4.50
2022-08-17T02:52:17.054Z,4.90
2022-08-17T02:55:40.577Z,4.60
2022-08-17T02:58:42.087Z,4.50
2022-08-17T03:01:43.695Z,4.43
2022-08-17T03:04:45.124Z,5.10
2022-08-17T03:07:47.413Z,5.00
2022-08-17T03:10:49.997Z,5.37
2022-08-17T03:13:51.413Z,5.27
2022-08-17T03:16:53.657Z,4.90
2022-08-17T03:19:55.070Z,5.50
2022-08-17T03:23:01.982Z,4.90
2022-08-17T03:26:04.690Z,4.87
2022-08-17T03:29:18.809Z,5.20
2022-08-17T03:32:20.603Z,5.77
2022-08-17T03:35:25.498Z,5.30
2022-08-17T03:38:26.950Z,4.83
2022-08-17T03:41:28.405Z,4.77
2022-08-17T03:44:29.841Z,4.70
2022-08-17T03:47:49.853Z,4.30
2022-08-17T03:51:14.204Z,4.80
2022-08-17T03:54:34.636Z,4.60
2022-08-17T03:57:37.020Z,4.20
2022-08-17T04:00:42.258Z,4.73
2022-08-17T04:03:43.730Z,4.80
2022-08-17T04:06:45.299Z,4.73
2022-08-17T04:09:46.820Z,4.40
2022-08-17T04:12:54.061Z,4.30
2022-08-17T04:15:56.129Z,4.20
2022-08-17T04:18:57.578Z,4.20
2022-08-17T04:21:58.999Z,3.80
2022-08-17T04:25:16.448Z,4.07
2022-08-17T04:28:19.788Z,4.40
2022-08-17T04:31:21.198Z,4.13
2022-08-17T04:34:22.889Z,4.10
2022-08-17T04:37:24.345Z,4.00
2022-08-17T04:40:46.281Z,4.10
2022-08-17T04:43:50.046Z,3.90
2022-08-17T04:46:51.490Z,4.03
2022-08-17T04:49:53.456Z,3.87
2022-08-17T04:52:55.234Z,4.27
2022-08-17T04:55:58.918Z,4.37
2022-08-17T04:59:03.980Z,4.90
2022-08-17T05:02:05.525Z,4.90
2022-08-17T05:05:07.208Z,4.73
2022-08-17T05:08:09.402Z,5.63
2022-08-17T05:11:10.923Z,5.73
2022-08-17T05:14:12.548Z,5.90
2022-08-17T05:17:14.153Z,5.60
2022-08-17T05:20:15.557Z,6.00
2022-08-17T05:23:19.593Z,5.90
2022-08-17T05:26:26.827Z,5.63
2022-08-17T05:29:35.093Z,5.50
2022-08-17T05:32:40.331Z,5.90
2022-08-17T05:35:44.425Z,6.10
2022-08-17T05:38:45.936Z,5.93
2022-08-17T05:41:47.980Z,5.90
2022-08-17T05:44:49.449Z,6.00
2022-08-17T05:47:51.024Z,5.93
2022-08-17T05:51:20.042Z,6.53
2022-08-17T05:54:46.071Z,5.97
2022-08-17T05:58:16.501Z,6.50
2022-08-17T06:01:23.724Z,6.63
2022-08-17T06:04:53.145Z,6.13
2022-08-17T06:08:12.264Z,6.27
2022-08-17T06:11:35.318Z,6.53
2022-08-17T06:15:24.741Z,6.30
2022-08-17T06:18:47.754Z,6.87
2022-08-17T06:21:52.866Z,6.30
2022-08-17T06:25:01.097Z,6.57
2022-08-17T06:28:07.653Z,6.27
2022-08-17T06:31:22.228Z,6.23
2022-08-17T06:34:23.796Z,6.37
2022-08-17T06:37:50.196Z,6.07
2022-08-17T06:41:13.561Z,6.60
2022-08-17T06:44:43.402Z,5.90
2022-08-17T06:47:53.013Z,5.90
2022-08-17T06:51:14.378Z,5.67
2022-08-17T06:54:45.767Z,5.80
2022-08-17T06:57:51.693Z,5.97
2022-08-17T07:00:59.082Z,6.00
2022-08-17T07:04:14.376Z,6.00
2022-08-17T07:07:38.263Z,5.80
2022-08-17T07:10:48.076Z,5.50
2022-08-17T07:14:13.995Z,6.30
2022-08-17T07:17:20.537Z,5.90
2022-08-17T07:20:22.473Z,5.97
2022-08-17T07:23:54.213Z,6.07
2022-08-17T07:27:12.376Z,6.37
2022-08-17T07:30:21.747Z,5.90
2022-08-17T07:33:32.773Z,5.97
2022-08-17T07:36:34.666Z,6.77
2022-08-17T07:39:36.114Z,6.07
2022-08-17T07:43:23.128Z,6.50
2022-08-17T07:46:47.510Z,6.27
2022-08-17T07:49:49.334Z,5.87
2022-08-17T07:52:52.504Z,6.43
2022-08-17T07:55:54.342Z,5.77
2022-08-17T07:59:24.586Z,6.07
2022-08-17T08:02:38.955Z,6.40
2022-08-17T08:05:54.374Z,7.10
2022-08-17T08:08:56.331Z,6.73
2022-08-17T08:11:58.781Z,6.63
2022-08-17T08:15:17.215Z,6.87
2022-08-17T08:18:53.844Z,6.47
2022-08-17T08:21:58.966Z,6.00
2022-08-17T08:25:25.398Z,6.53
2022-08-17T08:28:43.325Z,5.93
2022-08-17T08:32:09.164Z,6.33
2022-08-17T08:35:31.502Z,6.10
2022-08-17T08:38:49.056Z,6.33
2022-08-17T08:42:13.087Z,6.10
2022-08-17T08:45:24.371Z,5.43
2022-08-17T08:48:55.933Z,5.80
2022-08-17T08:52:01.973Z,5.73
2022-08-17T08:55:26.739Z,6.60
2022-08-17T08:58:42.467Z,5.47
2022-08-17T09:01:59.748Z,5.60
2022-08-17T09:05:18.310Z,5.50
2022-08-17T09:08:46.154Z,5.43
2022-08-17T09:12:02.062Z,5.27
2022-08-17T09:15:13.654Z,5.27
2022-08-17T09:18:59.185Z,5.27
2022-08-17T09:21:55.117Z,5.10
2022-08-17T09:25:10.131Z,4.97
2022-08-17T09:28:28.670Z,4.63
2022-08-17T09:31:48.690Z,5.10
2022-08-17T09:34:59.883Z,4.53
2022-08-17T09:38:48.153Z,4.63
2022-08-17T09:42:17.503Z,4.63
2022-08-17T09:45:31.421Z,5.10
2022-08-17T09:48:41.191Z,5.20
2022-08-17T09:51:52.136Z,4.70
2022-08-17T09:54:55.660Z,5.00
2022-08-17T09:58:18.629Z,4.70
2022-08-17T10:01:36.573Z,4.47
2022-08-17T10:04:54.250Z,4.50
2022-08-17T10:08:22.861Z,4.87
2022-08-17T10:12:01.058Z,4.63
2022-08-17T10:15:22.298Z,4.70
2022-08-17T10:18:56.165Z,5.73
2022-08-17T10:22:34.850Z,6.82
2022-08-17T10:25:55.771Z,6.77
2022-08-17T10:29:01.169Z,7.47
2022-08-17T10:57:31.954Z,6.47
2022-08-17T11:00:42.943Z,6.03
2022-08-17T11:08:58.606Z,6.57
2022-08-17T11:12:36.716Z,7.03
2022-08-17T12:15:54.755Z,4.35
2022-08-17T12:19:53.127Z,4.70
2022-08-17T12:26:30.265Z,4.40
2022-08-17T12:29:35.737Z,4.10
2022-08-17T12:32:40.931Z,4.13
2022-08-17T13:11:20.087Z,4.50
2022-08-17T13:29:30.384Z,4.80
2022-08-17T13:32:45.139Z,4.40
2022-08-17T13:35:50.303Z,4.80
2022-08-17T13:39:04.504Z,4.70
2022-08-17T13:42:50.548Z,4.82
2022-08-17T13:46:08.073Z,4.65
2022-08-17T13:49:11.768Z,4.72
2022-08-17T13:52:45.143Z,4.50
2022-08-17T13:56:37.689Z,4.63
2022-08-17T13:59:54.749Z,4.57
2022-08-17T14:03:02.702Z,4.38
2022-08-17T14:06:04.983Z,4.60
2022-08-17T14:09:06.405Z,4.10
2022-08-17T14:12:13.197Z,4.65
2022-08-17T14:15:18.068Z,4.95
2022-08-17T14:18:50.664Z,4.40
2022-08-17T14:21:43.670Z,4.65
2022-08-17T14:24:45.621Z,4.35
2022-08-17T14:27:53.352Z,4.68
2022-08-17T14:30:55.437Z,4.40
2022-08-17T14:33:58.840Z,3.80
2022-08-17T14:37:00.258Z,3.80
2022-08-17T14:40:06.421Z,4.10
2022-08-17T14:43:07.977Z,4.30
2022-08-17T14:46:12.090Z,4.40
2022-08-17T14:49:15.541Z,4.10
2022-08-17T14:52:21.473Z,4.32
2022-08-17T14:55:23.449Z,4.10
2022-08-17T14:58:25.917Z,4.25
2022-08-17T15:01:27.563Z,4.03
2022-08-17T15:04:29.103Z,4.15
2022-08-17T15:07:31.407Z,4.15
2022-08-17T15:10:33.575Z,3.80
2022-08-17T15:13:36.268Z,4.03
2022-08-17T15:16:54.105Z,4.30
2022-08-17T15:19:55.513Z,3.92
2022-08-17T15:22:58.783Z,4.53
2022-08-17T15:26:00.367Z,3.90
2022-08-17T15:29:01.925Z,3.80
2022-08-17T15:32:03.728Z,4.10
2022-08-17T15:35:06.896Z,4.15
2022-08-17T15:38:12.056Z,3.92
2022-08-17T15:41:17.873Z,4.35
2022-08-17T15:44:19.307Z,4.13
2022-08-17T15:47:21.303Z,4.40
2022-08-17T15:50:22.813Z,4.22
2022-08-17T15:53:24.232Z,4.28
2022-08-17T15:56:26.473Z,4.30
2022-08-17T15:59:30.852Z,4.60
2022-08-17T16:03:45.352Z,4.32
2022-08-17T16:05:56.436Z,4.05
2022-08-17T16:08:59.916Z,4.50
2022-08-17T16:12:16.130Z,4.13
2022-08-17T16:15:19.036Z,4.55
2022-08-17T16:18:31.553Z,4.35
2022-08-17T16:21:42.908Z,4.32
2022-08-17T16:24:56.797Z,4.20
2022-08-17T16:28:00.131Z,4.15
2022-08-17T16:31:01.929Z,4.53
2022-08-17T16:34:17.205Z,4.00
2022-08-17T16:37:19.973Z,4.78
2022-08-17T16:40:25.963Z,3.95
2022-08-17T16:43:29.190Z,4.45
2022-08-17T16:46:31.046Z,4.20
2022-08-17T16:49:37.211Z,4.45
2022-08-17T16:52:49.398Z,4.32
2022-08-17T16:55:51.924Z,4.50
2022-08-17T16:58:53.522Z,4.68
2022-08-17T17:01:59.707Z,3.90
2022-08-17T17:05:25.079Z,4.40
2022-08-17T17:13:43.678Z,4.07
2022-08-17T17:16:57.054Z,4.20
2022-08-17T17:20:16.734Z,4.88
2022-08-17T17:23:45.640Z,4.40
2022-08-17T17:27:10.901Z,4.45
2022-08-17T17:30:43.312Z,4.50
2022-08-17T17:33:48.783Z,4.80
2022-08-17T17:36:54.245Z,4.45
2022-08-17T17:40:04.910Z,4.75
2022-08-17T17:43:37.126Z,4.85
2022-08-17T17:46:37.857Z,4.38
2022-08-17T17:49:45.076Z,4.38
2022-08-17T17:53:41.580Z,4.70
2022-08-17T17:57:03.059Z,4.78
2022-08-17T18:00:18.460Z,4.93
2022-08-17T18:03:40.276Z,4.35
2022-08-17T18:07:01.782Z,4.68
2022-08-17T18:10:29.740Z,4.65
2022-08-17T18:14:14.214Z,4.40
2022-08-17T18:17:15.682Z,4.88
2022-08-17T18:20:23.768Z,4.45
2022-08-17T18:23:53.165Z,5.20
2022-08-17T18:27:00.161Z,4.90
2022-08-17T18:30:21.481Z,4.60
2022-08-17T18:33:26.231Z,4.93
2022-08-17T18:36:29.372Z,4.60
2022-08-17T18:39:30.895Z,5.45
2022-08-17T18:42:32.421Z,5.07
2022-08-17T18:45:33.842Z,5.03
2022-08-17T18:48:53.399Z,5.10
2022-08-17T18:52:13.156Z,4.88
2022-08-17T18:55:23.672Z,5.40
2022-08-17T18:58:25.605Z,5.07
2022-08-17T19:01:52.112Z,5.45
2022-08-17T19:05:09.421Z,5.30
2022-08-17T19:08:23.904Z,5.32
2022-08-17T19:11:37.366Z,5.15
2022-08-17T19:14:39.793Z,5.20
2022-08-17T19:17:53.408Z,5.30
2022-08-17T19:21:03.673Z,5.63
2022-08-17T19:24:19.749Z,5.78
2022-08-17T19:27:34.899Z,5.30
2022-08-17T19:30:43.425Z,6.05
2022-08-17T19:33:48.008Z,5.35
2022-08-17T19:37:02.017Z,5.93
2022-08-17T19:40:50.665Z,5.60
2022-08-17T19:43:56.038Z,5.57
2022-08-17T19:47:07.676Z,5.07
2022-08-17T19:50:38.341Z,5.25
2022-08-17T19:54:04.277Z,5.18
2022-08-17T19:57:14.283Z,5.75
2022-08-17T20:00:17.916Z,5.43
2022-08-17T20:03:26.914Z,6.22
2022-08-17T20:06:33.076Z,5.28
2022-08-17T20:09:38.573Z,5.68
2022-08-17T20:12:44.107Z,5.90
2022-08-17T20:15:46.135Z,5.68
2022-08-17T20:18:59.320Z,5.20
2022-08-17T20:22:09.427Z,5.78
2022-08-17T20:25:19.878Z,5.60
2022-08-17T20:28:35.265Z,6.00
2022-08-17T20:31:50.876Z,5.53
2022-08-17T20:35:17.300Z,5.80
2022-08-17T20:38:40.092Z,5.13
2022-08-17T20:42:04.063Z,5.60
2022-08-17T20:45:58.280Z,5.70
2022-08-17T20:49:08.489Z,5.70
2022-08-17T20:52:16.653Z,5.25
2022-08-17T20:55:52.276Z,5.72
2022-08-17T20:58:54.321Z,5.57
2022-08-17T21:02:12.433Z,5.70
2022-08-17T21:06:00.009Z,6.25
2022-08-17T21:09:15.620Z,5.90
2022-08-17T21:12:41.404Z,5.90
2022-08-17T21:16:08.585Z,5.40
2022-08-17T21:19:22.921Z,5.70
2022-08-17T21:22:52.378Z,5.88
2022-08-17T21:26:29.630Z,5.82
2022-08-17T21:29:34.046Z,6.15
2022-08-17T21:32:43.945Z,5.63
2022-08-17T21:35:58.745Z,6.18
2022-08-17T21:39:06.357Z,6.22
2022-08-17T21:42:08.027Z,5.80
2022-08-17T21:45:27.320Z,6.60
2022-08-17T21:48:32.278Z,6.72
2022-08-17T21:51:36.980Z,6.38
2022-08-17T21:54:42.529Z,6.20
2022-08-17T21:57:53.258Z,5.97
2022-08-17T22:01:28.343Z,6.10
2022-08-17T22:04:32.872Z,6.13
2022-08-17T22:07:45.679Z,6.13
2022-08-17T22:10:50.636Z,6.27
2022-08-17T22:13:52.070Z,6.13
2022-08-17T22:17:21.242Z,6.17
2022-08-17T22:20:22.731Z,5.90
2022-08-17T22:23:55.074Z,5.70
2022-08-17T22:27:03.638Z,5.80
2022-08-17T22:30:34.956Z,6.00
2022-08-17T22:33:41.517Z,6.60
2022-08-17T22:36:43.298Z,6.27
2022-08-17T22:39:45.263Z,5.63
2022-08-17T22:42:47.357Z,6.13
2022-08-17T22:45:53.271Z,6.03
2022-08-17T22:48:59.219Z,6.27
2022-08-17T22:52:07.741Z,6.03
2022-08-17T22:55:34.762Z,5.83
2022-08-17T22:59:02.129Z,5.50
2022-08-17T23:02:29.636Z,5.80
2022-08-17T23:05:31.314Z,5.90
2022-08-17T23:08:35.474Z,6.67
2022-08-17T23:11:50.046Z,5.97
2022-08-17T23:14:57.446Z,5.70
2022-08-17T23:18:05.068Z,5.63
2022-08-17T23:21:07.645Z,5.77
2022-08-17T23:24:09.744Z,5.33
2022-08-17T23:27:11.689Z,5.10
2022-08-17T23:30:13.644Z,4.70
2022-08-17T23:33:26.467Z,5.30
2022-08-17T23:36:29.338Z,4.90
2022-08-17T23:39:30.906Z,4.90
2022-08-17T23:42:33.593Z,4.50
2022-08-17T23:45:35.017Z,4.53
2022-08-17T23:48:37.408Z,4.27
2022-08-17T23:51:43.547Z,4.40
2022-08-17T23:54:46.909Z,4.80
2022-08-17T23:57:48.423Z,4.47
